Terminal Aerodrome Forecast
Issued by NWS

Home | Current Version | Previous Version | Text Only | Print | Product List | Glossary On
Versions: 1 2 3 4 5 6 7 8 9 10 11 12 13 14 15 16 17 18
000
FTUS41 KPBZ 271900 AAA
TAFFKL
TAF AMD
KFKL 271904Z 2719/2818 30006KT P6SM SCT025 BKN035
      TEMPO 2719/2722 BKN025
     FM280000 34005KT P6SM SCT035
      AMD LTD TO CLD VIS AND WIND=

USA.gov is the U.S. government's official web portal to all federal, state and local government web resources and services.